sensor_id;sensor_type;location;lat;lon;timestamp;P1;durP1;ratioP1;P2;durP2;ratioP2
45893;SDS011;31603;51.148;16.932;2023-03-12T00:00:40;18.63;;;8.95;;
45893;SDS011;31603;51.148;16.932;2023-03-12T00:03:06;19.80;;;9.82;;
45893;SDS011;31603;51.148;16.932;2023-03-12T00:05:36;16.25;;;8.60;;
45893;SDS011;31603;51.148;16.932;2023-03-12T00:08:04;19.35;;;9.00;;
45893;SDS011;31603;51.148;16.932;2023-03-12T00:10:30;20.60;;;9.15;;
45893;SDS011;31603;51.148;16.932;2023-03-12T00:12:57;16.38;;;8.68;;
45893;SDS011;31603;51.148;16.932;2023-03-12T00:15:23;17.55;;;9.18;;
45893;SDS011;31603;51.148;16.932;2023-03-12T00:17:50;16.48;;;8.20;;
45893;SDS011;31603;51.148;16.932;2023-03-12T00:20:17;17.40;;;8.95;;
45893;SDS011;31603;51.148;16.932;2023-03-12T00:22:45;16.90;;;8.25;;
45893;SDS011;31603;51.148;16.932;2023-03-12T00:25:12;14.95;;;7.90;;
45893;SDS011;31603;51.148;16.932;2023-03-12T00:27:38;12.43;;;6.97;;
45893;SDS011;31603;51.148;16.932;2023-03-12T00:30:05;14.57;;;7.80;;
45893;SDS011;31603;51.148;16.932;2023-03-12T00:32:32;13.40;;;7.45;;
45893;SDS011;31603;51.148;16.932;2023-03-12T00:34:59;14.90;;;7.60;;
45893;SDS011;31603;51.148;16.932;2023-03-12T00:37:25;12.27;;;6.57;;
45893;SDS011;31603;51.148;16.932;2023-03-12T00:39:53;14.77;;;7.05;;
45893;SDS011;31603;51.148;16.932;2023-03-12T00:42:19;12.15;;;7.05;;
45893;SDS011;31603;51.148;16.932;2023-03-12T00:44:46;11.45;;;6.50;;
45893;SDS011;31603;51.148;16.932;2023-03-12T00:47:12;10.23;;;6.05;;
45893;SDS011;31603;51.148;16.932;2023-03-12T00:49:38;12.85;;;6.50;;
45893;SDS011;31603;51.148;16.932;2023-03-12T00:52:05;10.38;;;5.90;;
45893;SDS011;31603;51.148;16.932;2023-03-12T00:54:31;14.60;;;6.25;;
45893;SDS011;31603;51.148;16.932;2023-03-12T00:56:59;12.98;;;6.63;;
45893;SDS011;31603;51.148;16.932;2023-03-12T00:59:25;12.77;;;6.15;;
45893;SDS011;31603;51.148;16.932;2023-03-12T01:01:51;12.13;;;5.93;;
45893;SDS011;31603;51.148;16.932;2023-03-12T01:04:18;12.68;;;6.13;;
45893;SDS011;31603;51.148;16.932;2023-03-12T01:06:45;13.70;;;5.85;;
45893;SDS011;31603;51.148;16.932;2023-03-12T01:09:11;10.38;;;5.55;;
45893;SDS011;31603;51.148;16.932;2023-03-12T01:11:38;9.60;;;5.20;;
45893;SDS011;31603;51.148;16.932;2023-03-12T01:14:06;8.60;;;4.85;;
45893;SDS011;31603;51.148;16.932;2023-03-12T01:16:33;14.73;;;5.32;;
45893;SDS011;31603;51.148;16.932;2023-03-12T01:19:00;8.73;;;4.63;;
45893;SDS011;31603;51.148;16.932;2023-03-12T01:21:27;5.95;;;3.58;;
45893;SDS011;31603;51.148;16.932;2023-03-12T01:23:54;10.05;;;5.57;;
45893;SDS011;31603;51.148;16.932;2023-03-12T01:26:20;10.95;;;5.20;;
45893;SDS011;31603;51.148;16.932;2023-03-12T01:28:47;8.73;;;4.95;;
45893;SDS011;31603;51.148;16.932;2023-03-12T01:31:15;8.85;;;3.88;;
45893;SDS011;31603;51.148;16.932;2023-03-12T01:33:42;10.07;;;5.40;;
45893;SDS011;31603;51.148;16.932;2023-03-12T01:36:14;7.35;;;4.88;;
45893;SDS011;31603;51.148;16.932;2023-03-12T01:38:41;7.22;;;3.58;;
45893;SDS011;31603;51.148;16.932;2023-03-12T01:41:07;12.32;;;5.82;;
45893;SDS011;31603;51.148;16.932;2023-03-12T01:43:34;10.15;;;4.38;;
45893;SDS011;31603;51.148;16.932;2023-03-12T01:46:03;6.82;;;4.22;;
45893;SDS011;31603;51.148;16.932;2023-03-12T01:48:33;7.78;;;3.88;;
45893;SDS011;31603;51.148;16.932;2023-03-12T01:51:00;8.38;;;4.00;;
45893;SDS011;31603;51.148;16.932;2023-03-12T01:53:27;10.77;;;5.32;;
45893;SDS011;31603;51.148;16.932;2023-03-12T01:55:55;7.03;;;3.40;;
45893;SDS011;31603;51.148;16.932;2023-03-12T01:58:22;6.68;;;4.05;;
45893;SDS011;31603;51.148;16.932;2023-03-12T02:00:49;5.93;;;3.22;;
45893;SDS011;31603;51.148;16.932;2023-03-12T02:03:15;8.02;;;3.63;;
45893;SDS011;31603;51.148;16.932;2023-03-12T02:05:43;5.20;;;2.78;;
45893;SDS011;31603;51.148;16.932;2023-03-12T02:08:12;8.93;;;3.67;;
45893;SDS011;31603;51.148;16.932;2023-03-12T02:10:39;9.55;;;3.95;;
45893;SDS011;31603;51.148;16.932;2023-03-12T02:13:06;4.75;;;3.05;;
45893;SDS011;31603;51.148;16.932;2023-03-12T02:15:33;9.93;;;4.00;;
45893;SDS011;31603;51.148;16.932;2023-03-12T02:18:01;7.72;;;3.28;;
45893;SDS011;31603;51.148;16.932;2023-03-12T02:20:31;9.13;;;3.42;;
45893;SDS011;31603;51.148;16.932;2023-03-12T02:23:03;4.55;;;2.63;;
45893;SDS011;31603;51.148;16.932;2023-03-12T02:25:34;6.40;;;3.58;;
45893;SDS011;31603;51.148;16.932;2023-03-12T02:28:02;11.68;;;3.40;;
45893;SDS011;31603;51.148;16.932;2023-03-12T02:30:30;9.20;;;3.55;;
45893;SDS011;31603;51.148;16.932;2023-03-12T02:32:57;6.25;;;3.00;;
45893;SDS011;31603;51.148;16.932;2023-03-12T02:35:23;10.88;;;3.78;;
45893;SDS011;31603;51.148;16.932;2023-03-12T02:37:50;5.40;;;3.03;;
45893;SDS011;31603;51.148;16.932;2023-03-12T02:40:17;9.05;;;3.17;;
45893;SDS011;31603;51.148;16.932;2023-03-12T02:42:49;8.45;;;2.88;;
45893;SDS011;31603;51.148;16.932;2023-03-12T02:45:15;7.40;;;3.47;;
45893;SDS011;31603;51.148;16.932;2023-03-12T02:47:41;6.95;;;2.90;;
45893;SDS011;31603;51.148;16.932;2023-03-12T02:50:08;9.85;;;4.00;;
45893;SDS011;31603;51.148;16.932;2023-03-12T02:52:34;8.73;;;3.30;;
45893;SDS011;31603;51.148;16.932;2023-03-12T02:55:02;6.30;;;2.95;;
45893;SDS011;31603;51.148;16.932;2023-03-12T02:57:28;4.65;;;2.92;;
45893;SDS011;31603;51.148;16.932;2023-03-12T02:59:56;6.57;;;2.63;;
45893;SDS011;31603;51.148;16.932;2023-03-12T03:02:24;8.68;;;3.47;;
45893;SDS011;31603;51.148;16.932;2023-03-12T03:04:50;11.77;;;3.00;;
45893;SDS011;31603;51.148;16.932;2023-03-12T03:07:16;6.15;;;2.85;;
45893;SDS011;31603;51.148;16.932;2023-03-12T03:09:43;4.00;;;2.40;;
45893;SDS011;31603;51.148;16.932;2023-03-12T03:12:09;6.45;;;2.88;;
45893;SDS011;31603;51.148;16.932;2023-03-12T03:14:35;6.43;;;2.58;;
45893;SDS011;31603;51.148;16.932;2023-03-12T03:17:03;5.57;;;2.47;;
45893;SDS011;31603;51.148;16.932;2023-03-12T03:19:29;3.80;;;1.95;;
45893;SDS011;31603;51.148;16.932;2023-03-12T03:21:56;5.15;;;2.30;;
45893;SDS011;31603;51.148;16.932;2023-03-12T03:24:22;7.28;;;2.95;;
45893;SDS011;31603;51.148;16.932;2023-03-12T03:26:48;7.13;;;2.50;;
45893;SDS011;31603;51.148;16.932;2023-03-12T03:29:15;4.10;;;2.78;;
45893;SDS011;31603;51.148;16.932;2023-03-12T03:31:41;7.00;;;2.72;;
45893;SDS011;31603;51.148;16.932;2023-03-12T03:34:08;4.40;;;3.58;;
45893;SDS011;31603;51.148;16.932;2023-03-12T03:36:35;4.95;;;2.47;;
45893;SDS011;31603;51.148;16.932;2023-03-12T03:39:01;6.07;;;2.67;;
45893;SDS011;31603;51.148;16.932;2023-03-12T03:41:29;4.00;;;1.80;;
45893;SDS011;31603;51.148;16.932;2023-03-12T03:43:56;3.10;;;1.83;;
45893;SDS011;31603;51.148;16.932;2023-03-12T03:46:23;4.72;;;2.20;;
45893;SDS011;31603;51.148;16.932;2023-03-12T03:48:49;3.28;;;1.85;;
45893;SDS011;31603;51.148;16.932;2023-03-12T03:51:17;6.45;;;2.30;;
45893;SDS011;31603;51.148;16.932;2023-03-12T03:53:44;7.05;;;2.47;;
45893;SDS011;31603;51.148;16.932;2023-03-12T03:56:11;6.45;;;2.78;;
45893;SDS011;31603;51.148;16.932;2023-03-12T03:58:37;3.35;;;2.42;;
45893;SDS011;31603;51.148;16.932;2023-03-12T04:01:04;7.38;;;2.58;;
45893;SDS011;31603;51.148;16.932;2023-03-12T04:03:31;5.05;;;2.40;;
45893;SDS011;31603;51.148;16.932;2023-03-12T04:05:58;4.47;;;1.98;;
45893;SDS011;31603;51.148;16.932;2023-03-12T04:08:26;8.88;;;2.97;;
45893;SDS011;31603;51.148;16.932;2023-03-12T04:10:52;2.05;;;1.17;;
45893;SDS011;31603;51.148;16.932;2023-03-12T04:13:19;3.78;;;2.53;;
45893;SDS011;31603;51.148;16.932;2023-03-12T04:15:46;7.22;;;2.40;;
45893;SDS011;31603;51.148;16.932;2023-03-12T04:18:12;3.25;;;2.10;;
45893;SDS011;31603;51.148;16.932;2023-03-12T04:20:39;10.75;;;2.47;;
45893;SDS011;31603;51.148;16.932;2023-03-12T04:23:05;4.25;;;2.17;;
45893;SDS011;31603;51.148;16.932;2023-03-12T04:25:33;5.80;;;2.33;;
45893;SDS011;31603;51.148;16.932;2023-03-12T04:27:59;5.05;;;2.28;;
45893;SDS011;31603;51.148;16.932;2023-03-12T04:30:26;5.97;;;2.50;;
45893;SDS011;31603;51.148;16.932;2023-03-12T04:32:53;7.68;;;2.47;;
45893;SDS011;31603;51.148;16.932;2023-03-12T04:35:19;3.28;;;2.08;;
45893;SDS011;31603;51.148;16.932;2023-03-12T04:37:45;5.47;;;2.17;;
45893;SDS011;31603;51.148;16.932;2023-03-12T04:40:12;4.93;;;2.17;;
45893;SDS011;31603;51.148;16.932;2023-03-12T04:42:40;6.43;;;2.40;;
45893;SDS011;31603;51.148;16.932;2023-03-12T04:45:07;5.95;;;2.50;;
45893;SDS011;31603;51.148;16.932;2023-03-12T04:47:33;4.43;;;2.30;;
45893;SDS011;31603;51.148;16.932;2023-03-12T04:50:00;4.63;;;2.25;;
45893;SDS011;31603;51.148;16.932;2023-03-12T04:52:26;5.88;;;2.42;;
45893;SDS011;31603;51.148;16.932;2023-03-12T04:54:52;4.95;;;2.33;;
45893;SDS011;31603;51.148;16.932;2023-03-12T04:57:19;6.70;;;2.65;;
45893;SDS011;31603;51.148;16.932;2023-03-12T04:59:46;6.97;;;1.67;;
45893;SDS011;31603;51.148;16.932;2023-03-12T05:02:13;4.05;;;2.28;;
45893;SDS011;31603;51.148;16.932;2023-03-12T05:04:39;3.88;;;1.75;;
45893;SDS011;31603;51.148;16.932;2023-03-12T05:07:05;2.60;;;1.70;;
45893;SDS011;31603;51.148;16.932;2023-03-12T05:09:32;6.05;;;2.25;;
45893;SDS011;31603;51.148;16.932;2023-03-12T05:11:58;4.75;;;2.13;;
45893;SDS011;31603;51.148;16.932;2023-03-12T05:14:24;7.97;;;2.92;;
45893;SDS011;31603;51.148;16.932;2023-03-12T05:16:52;6.75;;;2.63;;
45893;SDS011;31603;51.148;16.932;2023-03-12T05:19:18;9.10;;;2.70;;
45893;SDS011;31603;51.148;16.932;2023-03-12T05:21:44;8.05;;;3.17;;
45893;SDS011;31603;51.148;16.932;2023-03-12T05:24:11;5.70;;;2.38;;
45893;SDS011;31603;51.148;16.932;2023-03-12T05:26:37;8.55;;;3.28;;
45893;SDS011;31603;51.148;16.932;2023-03-12T05:29:04;5.00;;;2.40;;
45893;SDS011;31603;51.148;16.932;2023-03-12T05:31:31;4.60;;;2.05;;
45893;SDS011;31603;51.148;16.932;2023-03-12T05:34:00;4.22;;;2.00;;
45893;SDS011;31603;51.148;16.932;2023-03-12T05:36:27;4.07;;;1.83;;
45893;SDS011;31603;51.148;16.932;2023-03-12T05:38:53;3.75;;;1.80;;
45893;SDS011;31603;51.148;16.932;2023-03-12T05:41:20;5.60;;;2.38;;
45893;SDS011;31603;51.148;16.932;2023-03-12T05:43:47;6.40;;;2.28;;
45893;SDS011;31603;51.148;16.932;2023-03-12T05:46:14;5.20;;;1.88;;
45893;SDS011;31603;51.148;16.932;2023-03-12T05:48:40;6.78;;;2.03;;
45893;SDS011;31603;51.148;16.932;2023-03-12T05:51:08;8.35;;;2.50;;
45893;SDS011;31603;51.148;16.932;2023-03-12T05:53:35;4.05;;;1.80;;
45893;SDS011;31603;51.148;16.932;2023-03-12T05:56:01;5.38;;;2.05;;
45893;SDS011;31603;51.148;16.932;2023-03-12T05:58:28;4.22;;;2.00;;
45893;SDS011;31603;51.148;16.932;2023-03-12T06:00:54;5.18;;;1.92;;
45893;SDS011;31603;51.148;16.932;2023-03-12T06:03:20;3.75;;;1.73;;
45893;SDS011;31603;51.148;16.932;2023-03-12T06:05:46;4.25;;;2.05;;
45893;SDS011;31603;51.148;16.932;2023-03-12T06:08:14;4.78;;;2.40;;
45893;SDS011;31603;51.148;16.932;2023-03-12T06:10:40;5.13;;;2.25;;
45893;SDS011;31603;51.148;16.932;2023-03-12T06:13:07;6.40;;;2.75;;
45893;SDS011;31603;51.148;16.932;2023-03-12T06:15:34;6.38;;;2.30;;
45893;SDS011;31603;51.148;16.932;2023-03-12T06:18:01;6.57;;;2.05;;
45893;SDS011;31603;51.148;16.932;2023-03-12T06:20:27;3.70;;;2.00;;
45893;SDS011;31603;51.148;16.932;2023-03-12T06:22:53;5.22;;;2.78;;
45893;SDS011;31603;51.148;16.932;2023-03-12T06:25:21;3.95;;;1.90;;
45893;SDS011;31603;51.148;16.932;2023-03-12T06:27:47;4.88;;;2.00;;
45893;SDS011;31603;51.148;16.932;2023-03-12T06:30:14;6.32;;;2.35;;
45893;SDS011;31603;51.148;16.932;2023-03-12T06:32:40;8.05;;;1.95;;
45893;SDS011;31603;51.148;16.932;2023-03-12T06:35:07;2.45;;;1.58;;
45893;SDS011;31603;51.148;16.932;2023-03-12T06:37:33;3.22;;;1.92;;
45893;SDS011;31603;51.148;16.932;2023-03-12T06:39:59;5.80;;;2.10;;
45893;SDS011;31603;51.148;16.932;2023-03-12T06:42:28;3.63;;;2.03;;
45893;SDS011;31603;51.148;16.932;2023-03-12T06:44:56;6.40;;;2.10;;
45893;SDS011;31603;51.148;16.932;2023-03-12T06:47:22;3.85;;;2.00;;
45893;SDS011;31603;51.148;16.932;2023-03-12T06:49:48;4.88;;;2.10;;
45893;SDS011;31603;51.148;16.932;2023-03-12T06:52:14;4.22;;;2.15;;
45893;SDS011;31603;51.148;16.932;2023-03-12T06:54:41;3.58;;;1.75;;
45893;SDS011;31603;51.148;16.932;2023-03-12T06:57:07;6.18;;;2.00;;
45893;SDS011;31603;51.148;16.932;2023-03-12T06:59:35;5.75;;;1.80;;
45893;SDS011;31603;51.148;16.932;2023-03-12T07:02:02;7.13;;;2.35;;
45893;SDS011;31603;51.148;16.932;2023-03-12T07:04:28;4.55;;;2.55;;
45893;SDS011;31603;51.148;16.932;2023-03-12T07:06:54;6.20;;;2.72;;
45893;SDS011;31603;51.148;16.932;2023-03-12T07:09:20;3.83;;;1.88;;
45893;SDS011;31603;51.148;16.932;2023-03-12T07:11:47;7.93;;;2.67;;
45893;SDS011;31603;51.148;16.932;2023-03-12T07:14:13;5.13;;;2.33;;
45893;SDS011;31603;51.148;16.932;2023-03-12T07:16:41;6.15;;;2.50;;
45893;SDS011;31603;51.148;16.932;2023-03-12T07:19:07;9.40;;;2.67;;
45893;SDS011;31603;51.148;16.932;2023-03-12T07:21:34;6.57;;;2.13;;
45893;SDS011;31603;51.148;16.932;2023-03-12T07:24:00;9.23;;;2.50;;
45893;SDS011;31603;51.148;16.932;2023-03-12T07:26:30;5.53;;;1.90;;
45893;SDS011;31603;51.148;16.932;2023-03-12T07:28:57;6.50;;;1.70;;
45893;SDS011;31603;51.148;16.932;2023-03-12T07:31:23;6.28;;;2.28;;
45893;SDS011;31603;51.148;16.932;2023-03-12T07:33:51;4.60;;;1.58;;
45893;SDS011;31603;51.148;16.932;2023-03-12T07:36:18;5.05;;;1.83;;
45893;SDS011;31603;51.148;16.932;2023-03-12T07:38:44;7.05;;;2.13;;
45893;SDS011;31603;51.148;16.932;2023-03-12T07:41:10;4.85;;;2.33;;
45893;SDS011;31603;51.148;16.932;2023-03-12T07:43:36;6.40;;;2.40;;
45893;SDS011;31603;51.148;16.932;2023-03-12T07:46:03;5.80;;;2.80;;
45893;SDS011;31603;51.148;16.932;2023-03-12T07:48:29;6.78;;;2.35;;
45893;SDS011;31603;51.148;16.932;2023-03-12T07:50:57;5.07;;;2.20;;
45893;SDS011;31603;51.148;16.932;2023-03-12T07:53:23;6.28;;;2.25;;
45893;SDS011;31603;51.148;16.932;2023-03-12T07:55:49;5.13;;;2.00;;
45893;SDS011;31603;51.148;16.932;2023-03-12T07:58:16;4.72;;;2.30;;
45893;SDS011;31603;51.148;16.932;2023-03-12T08:00:43;6.38;;;2.40;;
45893;SDS011;31603;51.148;16.932;2023-03-12T08:03:10;4.20;;;2.10;;
45893;SDS011;31603;51.148;16.932;2023-03-12T08:05:36;6.45;;;2.05;;
45893;SDS011;31603;51.148;16.932;2023-03-12T08:08:04;7.90;;;2.53;;
45893;SDS011;31603;51.148;16.932;2023-03-12T08:10:30;4.22;;;2.00;;
45893;SDS011;31603;51.148;16.932;2023-03-12T08:12:57;12.98;;;2.88;;
45893;SDS011;31603;51.148;16.932;2023-03-12T08:15:23;5.32;;;2.50;;
45893;SDS011;31603;51.148;16.932;2023-03-12T08:17:50;7.18;;;2.53;;
45893;SDS011;31603;51.148;16.932;2023-03-12T08:20:16;5.18;;;2.35;;
45893;SDS011;31603;51.148;16.932;2023-03-12T08:22:43;5.95;;;2.80;;
45893;SDS011;31603;51.148;16.932;2023-03-12T08:25:10;6.72;;;2.40;;
45893;SDS011;31603;51.148;16.932;2023-03-12T08:27:37;7.18;;;2.60;;
45893;SDS011;31603;51.148;16.932;2023-03-12T08:30:04;7.72;;;2.80;;
45893;SDS011;31603;51.148;16.932;2023-03-12T08:32:30;5.15;;;1.73;;
45893;SDS011;31603;51.148;16.932;2023-03-12T08:34:57;5.63;;;2.67;;
45893;SDS011;31603;51.148;16.932;2023-03-12T08:37:26;12.00;;;4.05;;
45893;SDS011;31603;51.148;16.932;2023-03-12T08:39:52;5.95;;;2.38;;
45893;SDS011;31603;51.148;16.932;2023-03-12T08:42:20;5.03;;;2.70;;
45893;SDS011;31603;51.148;16.932;2023-03-12T08:44:48;5.88;;;2.72;;
45893;SDS011;31603;51.148;16.932;2023-03-12T08:47:14;4.35;;;1.98;;
45893;SDS011;31603;51.148;16.932;2023-03-12T08:49:43;6.47;;;2.75;;
45893;SDS011;31603;51.148;16.932;2023-03-12T08:52:09;6.07;;;3.00;;
45893;SDS011;31603;51.148;16.932;2023-03-12T08:54:35;8.27;;;2.97;;
45893;SDS011;31603;51.148;16.932;2023-03-12T08:57:02;7.82;;;2.50;;
45893;SDS011;31603;51.148;16.932;2023-03-12T08:59:29;6.00;;;2.58;;
45893;SDS011;31603;51.148;16.932;2023-03-12T09:01:56;4.03;;;2.03;;
45893;SDS011;31603;51.148;16.932;2023-03-12T09:04:22;5.20;;;2.30;;
45893;SDS011;31603;51.148;16.932;2023-03-12T09:06:48;4.75;;;2.15;;
45893;SDS011;31603;51.148;16.932;2023-03-12T09:09:14;4.80;;;2.33;;
45893;SDS011;31603;51.148;16.932;2023-03-12T09:11:41;7.40;;;2.55;;
45893;SDS011;31603;51.148;16.932;2023-03-12T09:14:07;8.55;;;2.60;;
45893;SDS011;31603;51.148;16.932;2023-03-12T09:16:35;4.95;;;2.50;;
45893;SDS011;31603;51.148;16.932;2023-03-12T09:19:01;3.80;;;2.05;;
45893;SDS011;31603;51.148;16.932;2023-03-12T09:21:28;8.32;;;2.70;;
45893;SDS011;31603;51.148;16.932;2023-03-12T09:23:54;7.25;;;3.03;;
45893;SDS011;31603;51.148;16.932;2023-03-12T09:26:21;8.63;;;3.17;;
45893;SDS011;31603;51.148;16.932;2023-03-12T09:28:49;5.07;;;2.63;;
45893;SDS011;31603;51.148;16.932;2023-03-12T09:31:16;5.80;;;2.13;;
45893;SDS011;31603;51.148;16.932;2023-03-12T09:33:44;6.55;;;2.65;;
45893;SDS011;31603;51.148;16.932;2023-03-12T09:36:11;6.18;;;2.80;;
45893;SDS011;31603;51.148;16.932;2023-03-12T09:38:39;5.80;;;2.83;;
45893;SDS011;31603;51.148;16.932;2023-03-12T09:41:05;7.38;;;2.95;;
45893;SDS011;31603;51.148;16.932;2023-03-12T09:43:33;5.82;;;2.72;;
45893;SDS011;31603;51.148;16.932;2023-03-12T09:46:01;4.78;;;2.47;;
45893;SDS011;31603;51.148;16.932;2023-03-12T09:48:30;4.55;;;2.38;;
45893;SDS011;31603;51.148;16.932;2023-03-12T09:50:59;3.85;;;2.08;;
45893;SDS011;31603;51.148;16.932;2023-03-12T09:53:26;3.42;;;2.25;;
45893;SDS011;31603;51.148;16.932;2023-03-12T09:55:56;6.15;;;2.67;;
45893;SDS011;31603;51.148;16.932;2023-03-12T09:58:28;3.95;;;2.22;;
45893;SDS011;31603;51.148;16.932;2023-03-12T10:00:57;4.38;;;1.90;;
45893;SDS011;31603;51.148;16.932;2023-03-12T10:03:32;6.07;;;2.40;;
45893;SDS011;31603;51.148;16.932;2023-03-12T10:06:05;4.60;;;1.90;;
45893;SDS011;31603;51.148;16.932;2023-03-12T10:08:36;6.10;;;2.53;;
45893;SDS011;31603;51.148;16.932;2023-03-12T10:11:09;8.80;;;2.60;;
45893;SDS011;31603;51.148;16.932;2023-03-12T10:13:46;4.43;;;2.22;;
45893;SDS011;31603;51.148;16.932;2023-03-12T10:16:19;4.85;;;2.10;;
45893;SDS011;31603;51.148;16.932;2023-03-12T10:18:53;4.35;;;2.47;;
45893;SDS011;31603;51.148;16.932;2023-03-12T10:21:27;7.35;;;2.05;;
45893;SDS011;31603;51.148;16.932;2023-03-12T10:26:37;6.43;;;2.72;;
45893;SDS011;31603;51.148;16.932;2023-03-12T10:29:07;7.43;;;3.05;;
45893;SDS011;31603;51.148;16.932;2023-03-12T10:31:36;5.50;;;2.23;;
45893;SDS011;31603;51.148;16.932;2023-03-12T10:34:08;9.00;;;2.47;;
45893;SDS011;31603;51.148;16.932;2023-03-12T10:36:40;7.88;;;2.85;;
45893;SDS011;31603;51.148;16.932;2023-03-12T10:39:09;8.50;;;2.92;;
45893;SDS011;31603;51.148;16.932;2023-03-12T10:41:38;4.83;;;2.70;;
45893;SDS011;31603;51.148;16.932;2023-03-12T10:44:05;6.57;;;2.42;;
45893;SDS011;31603;51.148;16.932;2023-03-12T10:49:24;4.93;;;2.70;;
45893;SDS011;31603;51.148;16.932;2023-03-12T10:51:56;10.13;;;3.15;;
45893;SDS011;31603;51.148;16.932;2023-03-12T10:54:26;7.80;;;2.78;;
45893;SDS011;31603;51.148;16.932;2023-03-12T10:56:53;6.55;;;2.80;;
45893;SDS011;31603;51.148;16.932;2023-03-12T10:59:20;4.05;;;2.35;;
45893;SDS011;31603;51.148;16.932;2023-03-12T11:01:46;4.18;;;2.28;;
45893;SDS011;31603;51.148;16.932;2023-03-12T11:04:15;3.53;;;2.03;;
45893;SDS011;31603;51.148;16.932;2023-03-12T11:06:42;6.25;;;2.50;;
45893;SDS011;31603;51.148;16.932;2023-03-12T11:09:17;5.35;;;2.15;;
45893;SDS011;31603;51.148;16.932;2023-03-12T11:11:44;3.90;;;2.20;;
45893;SDS011;31603;51.148;16.932;2023-03-12T11:14:14;6.65;;;2.50;;
45893;SDS011;31603;51.148;16.932;2023-03-12T11:16:41;6.28;;;3.17;;
45893;SDS011;31603;51.148;16.932;2023-03-12T11:19:09;6.88;;;3.22;;
45893;SDS011;31603;51.148;16.932;2023-03-12T11:21:37;7.32;;;3.33;;
45893;SDS011;31603;51.148;16.932;2023-03-12T11:24:08;8.57;;;3.58;;
45893;SDS011;31603;51.148;16.932;2023-03-12T11:26:48;5.38;;;2.97;;
45893;SDS011;31603;51.148;16.932;2023-03-12T11:29:25;7.72;;;3.00;;
45893;SDS011;31603;51.148;16.932;2023-03-12T11:31:56;7.38;;;3.25;;
45893;SDS011;31603;51.148;16.932;2023-03-12T11:34:25;4.30;;;2.65;;
45893;SDS011;31603;51.148;16.932;2023-03-12T11:36:54;3.95;;;2.80;;
45893;SDS011;31603;51.148;16.932;2023-03-12T11:39:25;8.00;;;3.13;;
45893;SDS011;31603;51.148;16.932;2023-03-12T11:44:47;6.32;;;2.97;;
45893;SDS011;31603;51.148;16.932;2023-03-12T11:47:18;6.38;;;2.42;;
45893;SDS011;31603;51.148;16.932;2023-03-12T11:50:00;6.90;;;2.88;;
45893;SDS011;31603;51.148;16.932;2023-03-12T11:52:30;5.40;;;2.70;;
45893;SDS011;31603;51.148;16.932;2023-03-12T11:55:04;7.43;;;3.15;;
45893;SDS011;31603;51.148;16.932;2023-03-12T12:00:02;3.72;;;2.45;;
45893;SDS011;31603;51.148;16.932;2023-03-12T12:02:41;6.70;;;2.75;;
45893;SDS011;31603;51.148;16.932;2023-03-12T12:05:24;6.78;;;3.22;;
45893;SDS011;31603;51.148;16.932;2023-03-12T12:08:02;5.07;;;2.45;;
45893;SDS011;31603;51.148;16.932;2023-03-12T12:10:34;6.20;;;3.08;;
45893;SDS011;31603;51.148;16.932;2023-03-12T12:13:05;4.93;;;2.35;;
45893;SDS011;31603;51.148;16.932;2023-03-12T12:15:37;5.93;;;2.55;;
45893;SDS011;31603;51.148;16.932;2023-03-12T12:18:12;4.70;;;2.58;;
45893;SDS011;31603;51.148;16.932;2023-03-12T12:20:46;7.75;;;2.90;;
45893;SDS011;31603;51.148;16.932;2023-03-12T12:23:14;5.18;;;2.80;;
45893;SDS011;31603;51.148;16.932;2023-03-12T12:25:45;4.78;;;2.90;;
45893;SDS011;31603;51.148;16.932;2023-03-12T12:28:19;7.43;;;3.00;;
45893;SDS011;31603;51.148;16.932;2023-03-12T12:30:56;5.13;;;2.70;;
45893;SDS011;31603;51.148;16.932;2023-03-12T12:33:28;6.72;;;2.38;;
45893;SDS011;31603;51.148;16.932;2023-03-12T12:35:55;5.55;;;2.60;;
45893;SDS011;31603;51.148;16.932;2023-03-12T12:38:22;4.80;;;2.40;;
45893;SDS011;31603;51.148;16.932;2023-03-12T12:43:24;5.57;;;2.40;;
45893;SDS011;31603;51.148;16.932;2023-03-12T12:45:52;7.95;;;3.17;;
45893;SDS011;31603;51.148;16.932;2023-03-12T12:48:29;5.63;;;2.90;;
45893;SDS011;31603;51.148;16.932;2023-03-12T12:50:57;6.38;;;2.50;;
45893;SDS011;31603;51.148;16.932;2023-03-12T12:53:25;5.53;;;2.38;;
45893;SDS011;31603;51.148;16.932;2023-03-12T12:55:54;5.18;;;2.17;;
45893;SDS011;31603;51.148;16.932;2023-03-12T12:58:30;5.40;;;2.40;;
45893;SDS011;31603;51.148;16.932;2023-03-12T13:00:58;6.47;;;3.03;;
45893;SDS011;31603;51.148;16.932;2023-03-12T13:03:25;6.60;;;2.88;;
45893;SDS011;31603;51.148;16.932;2023-03-12T13:05:55;4.32;;;2.30;;
45893;SDS011;31603;51.148;16.932;2023-03-12T13:08:32;5.82;;;2.45;;
45893;SDS011;31603;51.148;16.932;2023-03-12T13:11:01;5.57;;;2.92;;
45893;SDS011;31603;51.148;16.932;2023-03-12T13:13:28;6.72;;;3.05;;
45893;SDS011;31603;51.148;16.932;2023-03-12T13:18:36;4.93;;;2.50;;
45893;SDS011;31603;51.148;16.932;2023-03-12T13:23:52;6.18;;;2.60;;
45893;SDS011;31603;51.148;16.932;2023-03-12T13:26:24;5.28;;;2.45;;
45893;SDS011;31603;51.148;16.932;2023-03-12T13:28:57;8.75;;;2.50;;
45893;SDS011;31603;51.148;16.932;2023-03-12T13:33:51;6.40;;;2.88;;
45893;SDS011;31603;51.148;16.932;2023-03-12T13:36:18;6.00;;;2.15;;
45893;SDS011;31603;51.148;16.932;2023-03-12T13:38:58;6.25;;;2.65;;
45893;SDS011;31603;51.148;16.932;2023-03-12T13:41:32;4.80;;;2.45;;
45893;SDS011;31603;51.148;16.932;2023-03-12T13:43:59;6.97;;;2.78;;
45893;SDS011;31603;51.148;16.932;2023-03-12T13:46:26;3.35;;;2.05;;
45893;SDS011;31603;51.148;16.932;2023-03-12T13:48:55;6.13;;;2.35;;
45893;SDS011;31603;51.148;16.932;2023-03-12T13:51:23;4.97;;;2.80;;
45893;SDS011;31603;51.148;16.932;2023-03-12T13:53:51;4.63;;;2.67;;
45893;SDS011;31603;51.148;16.932;2023-03-12T13:56:24;5.03;;;2.28;;
45893;SDS011;31603;51.148;16.932;2023-03-12T13:58:53;6.10;;;2.78;;
45893;SDS011;31603;51.148;16.932;2023-03-12T14:01:20;4.70;;;2.53;;
45893;SDS011;31603;51.148;16.932;2023-03-12T14:03:47;7.85;;;2.70;;
45893;SDS011;31603;51.148;16.932;2023-03-12T14:06:16;7.05;;;2.67;;
45893;SDS011;31603;51.148;16.932;2023-03-12T14:08:46;7.45;;;2.30;;
45893;SDS011;31603;51.148;16.932;2023-03-12T14:11:23;3.53;;;2.58;;
45893;SDS011;31603;51.148;16.932;2023-03-12T14:14:03;10.73;;;3.38;;
45893;SDS011;31603;51.148;16.932;2023-03-12T14:16:34;11.38;;;3.58;;
45893;SDS011;31603;51.148;16.932;2023-03-12T14:19:02;12.85;;;3.38;;
45893;SDS011;31603;51.148;16.932;2023-03-12T14:21:31;16.23;;;3.58;;
45893;SDS011;31603;51.148;16.932;2023-03-12T14:23:59;13.20;;;3.10;;
45893;SDS011;31603;51.148;16.932;2023-03-12T14:26:43;7.20;;;2.57;;
45893;SDS011;31603;51.148;16.932;2023-03-12T14:29:13;10.68;;;3.65;;
45893;SDS011;31603;51.148;16.932;2023-03-12T14:31:45;4.45;;;1.98;;
45893;SDS011;31603;51.148;16.932;2023-03-12T14:34:14;5.88;;;2.20;;
45893;SDS011;31603;51.148;16.932;2023-03-12T14:36:57;5.30;;;2.17;;
45893;SDS011;31603;51.148;16.932;2023-03-12T14:39:41;5.18;;;2.20;;
45893;SDS011;31603;51.148;16.932;2023-03-12T14:42:17;4.03;;;2.35;;
45893;SDS011;31603;51.148;16.932;2023-03-12T14:44:53;5.57;;;2.97;;
45893;SDS011;31603;51.148;16.932;2023-03-12T14:47:23;8.45;;;2.83;;
45893;SDS011;31603;51.148;16.932;2023-03-12T14:49:49;4.70;;;3.05;;
45893;SDS011;31603;51.148;16.932;2023-03-12T14:52:19;12.30;;;4.15;;
45893;SDS011;31603;51.148;16.932;2023-03-12T14:54:57;9.50;;;3.30;;
45893;SDS011;31603;51.148;16.932;2023-03-12T14:58:04;8.90;;;3.83;;
45893;SDS011;31603;51.148;16.932;2023-03-12T15:00:31;8.05;;;3.50;;